sensor_id;sensor_type;location;lat;lon;timestamp;P1;durP1;ratioP1;P2;durP2;ratioP2
48791;SDS011;34587;48.816;9.420;2022-11-20T00:01:05;2.70;;;0.98;;
48791;SDS011;34587;48.816;9.420;2022-11-20T00:03:31;0.70;;;0.70;;
48791;SDS011;34587;48.816;9.420;2022-11-20T00:06:04;0.80;;;0.80;;
48791;SDS011;34587;48.816;9.420;2022-11-20T00:08:31;2.55;;;1.02;;
48791;SDS011;34587;48.816;9.420;2022-11-20T00:10:57;0.95;;;0.95;;
48791;SDS011;34587;48.816;9.420;2022-11-20T00:13:22;0.82;;;0.82;;
48791;SDS011;34587;48.816;9.420;2022-11-20T00:15:48;0.50;;;0.50;;
48791;SDS011;34587;48.816;9.420;2022-11-20T00:18:13;0.77;;;0.75;;
48791;SDS011;34587;48.816;9.420;2022-11-20T00:20:39;0.38;;;0.35;;
48791;SDS011;34587;48.816;9.420;2022-11-20T00:23:04;1.17;;;0.65;;
48791;SDS011;34587;48.816;9.420;2022-11-20T00:25:33;0.50;;;0.50;;
48791;SDS011;34587;48.816;9.420;2022-11-20T00:27:59;0.40;;;0.40;;
48791;SDS011;34587;48.816;9.420;2022-11-20T00:30:24;2.60;;;0.73;;
48791;SDS011;34587;48.816;9.420;2022-11-20T00:32:49;0.70;;;0.70;;
48791;SDS011;34587;48.816;9.420;2022-11-20T00:35:15;0.50;;;0.50;;
48791;SDS011;34587;48.816;9.420;2022-11-20T00:37:40;0.60;;;0.60;;
48791;SDS011;34587;48.816;9.420;2022-11-20T00:40:06;0.80;;;0.77;;
48791;SDS011;34587;48.816;9.420;2022-11-20T00:42:31;0.38;;;0.38;;
48791;SDS011;34587;48.816;9.420;2022-11-20T00:44:57;0.52;;;0.52;;
48791;SDS011;34587;48.816;9.420;2022-11-20T00:47:23;1.27;;;0.82;;
48791;SDS011;34587;48.816;9.420;2022-11-20T00:49:48;0.47;;;0.47;;
48791;SDS011;34587;48.816;9.420;2022-11-20T00:52:13;2.60;;;1.00;;
48791;SDS011;34587;48.816;9.420;2022-11-20T00:54:38;1.10;;;1.05;;
48791;SDS011;34587;48.816;9.420;2022-11-20T00:57:04;0.60;;;0.60;;
48791;SDS011;34587;48.816;9.420;2022-11-20T00:59:29;0.57;;;0.57;;
48791;SDS011;34587;48.816;9.420;2022-11-20T05:46:26;0.38;;;0.38;;
48791;SDS011;34587;48.816;9.420;2022-11-20T05:48:52;0.57;;;0.57;;
48791;SDS011;34587;48.816;9.420;2022-11-20T05:51:18;0.43;;;0.38;;
48791;SDS011;34587;48.816;9.420;2022-11-20T05:53:44;0.73;;;0.55;;
48791;SDS011;34587;48.816;9.420;2022-11-20T05:56:11;0.98;;;0.93;;
48791;SDS011;34587;48.816;9.420;2022-11-20T05:58:44;0.40;;;0.40;;
48791;SDS011;34587;48.816;9.420;2022-11-20T06:03:37;0.73;;;0.73;;
48791;SDS011;34587;48.816;9.420;2022-11-20T06:06:04;0.40;;;0.30;;
48791;SDS011;34587;48.816;9.420;2022-11-20T06:08:31;0.45;;;0.45;;
48791;SDS011;34587;48.816;9.420;2022-11-20T06:10:56;0.32;;;0.32;;
48791;SDS011;34587;48.816;9.420;2022-11-20T06:13:22;0.47;;;0.47;;
48791;SDS011;34587;48.816;9.420;2022-11-20T06:15:51;0.57;;;0.57;;
48791;SDS011;34587;48.816;9.420;2022-11-20T06:20:43;0.30;;;0.30;;
48791;SDS011;34587;48.816;9.420;2022-11-20T06:23:08;0.30;;;0.30;;
48791;SDS011;34587;48.816;9.420;2022-11-20T06:25:36;0.50;;;0.32;;
48791;SDS011;34587;48.816;9.420;2022-11-20T06:28:05;0.60;;;0.60;;
48791;SDS011;34587;48.816;9.420;2022-11-20T06:30:30;0.50;;;0.50;;
48791;SDS011;34587;48.816;9.420;2022-11-20T06:32:56;0.35;;;0.35;;
48791;SDS011;34587;48.816;9.420;2022-11-20T06:35:21;0.50;;;0.50;;
48791;SDS011;34587;48.816;9.420;2022-11-20T06:37:46;0.30;;;0.30;;
48791;SDS011;34587;48.816;9.420;2022-11-20T06:40:11;0.70;;;0.70;;
48791;SDS011;34587;48.816;9.420;2022-11-20T06:42:37;0.63;;;0.63;;
48791;SDS011;34587;48.816;9.420;2022-11-20T06:45:02;0.40;;;0.40;;
48791;SDS011;34587;48.816;9.420;2022-11-20T06:47:28;0.40;;;0.40;;
48791;SDS011;34587;48.816;9.420;2022-11-20T06:49:53;0.20;;;0.20;;
48791;SDS011;34587;48.816;9.420;2022-11-20T06:52:18;0.52;;;0.52;;
48791;SDS011;34587;48.816;9.420;2022-11-20T06:54:44;0.40;;;0.40;;
48791;SDS011;34587;48.816;9.420;2022-11-20T06:57:09;0.85;;;0.82;;
48791;SDS011;34587;48.816;9.420;2022-11-20T06:59:34;0.40;;;0.40;;
48791;SDS011;34587;48.816;9.420;2022-11-20T07:02:00;2.45;;;0.52;;
48791;SDS011;34587;48.816;9.420;2022-11-20T07:04:25;0.43;;;0.43;;
48791;SDS011;34587;48.816;9.420;2022-11-20T07:06:50;0.40;;;0.40;;
48791;SDS011;34587;48.816;9.420;2022-11-20T07:09:15;0.68;;;0.60;;
48791;SDS011;34587;48.816;9.420;2022-11-20T07:11:41;0.30;;;0.30;;
48791;SDS011;34587;48.816;9.420;2022-11-20T07:14:06;0.45;;;0.45;;
48791;SDS011;34587;48.816;9.420;2022-11-20T07:16:31;0.55;;;0.30;;
48791;SDS011;34587;48.816;9.420;2022-11-20T07:18:57;0.68;;;0.68;;
48791;SDS011;34587;48.816;9.420;2022-11-20T07:21:22;0.30;;;0.30;;
48791;SDS011;34587;48.816;9.420;2022-11-20T07:23:47;0.30;;;0.30;;
48791;SDS011;34587;48.816;9.420;2022-11-20T07:26:13;0.22;;;0.22;;
48791;SDS011;34587;48.816;9.420;2022-11-20T07:28:38;0.30;;;0.30;;
48791;SDS011;34587;48.816;9.420;2022-11-20T07:31:04;0.50;;;0.50;;
48791;SDS011;34587;48.816;9.420;2022-11-20T07:33:31;0.30;;;0.30;;
48791;SDS011;34587;48.816;9.420;2022-11-20T07:35:58;1.20;;;0.43;;
48791;SDS011;34587;48.816;9.420;2022-11-20T07:38:24;0.20;;;0.20;;
48791;SDS011;34587;48.816;9.420;2022-11-20T07:40:53;1.92;;;0.60;;
48791;SDS011;34587;48.816;9.420;2022-11-20T07:43:20;0.70;;;0.70;;
48791;SDS011;34587;48.816;9.420;2022-11-20T07:45:45;0.30;;;0.30;;
48791;SDS011;34587;48.816;9.420;2022-11-20T07:48:10;0.30;;;0.30;;
48791;SDS011;34587;48.816;9.420;2022-11-20T07:50:36;0.52;;;0.52;;
48791;SDS011;34587;48.816;9.420;2022-11-20T07:53:02;0.32;;;0.32;;
48791;SDS011;34587;48.816;9.420;2022-11-20T07:55:28;0.30;;;0.30;;
48791;SDS011;34587;48.816;9.420;2022-11-20T07:57:55;0.30;;;0.30;;
48791;SDS011;34587;48.816;9.420;2022-11-20T08:00:21;0.30;;;0.30;;
48791;SDS011;34587;48.816;9.420;2022-11-20T08:02:46;0.65;;;0.47;;
48791;SDS011;34587;48.816;9.420;2022-11-20T08:05:12;0.30;;;0.30;;
48791;SDS011;34587;48.816;9.420;2022-11-20T08:07:37;0.28;;;0.28;;
48791;SDS011;34587;48.816;9.420;2022-11-20T08:10:04;0.32;;;0.32;;
48791;SDS011;34587;48.816;9.420;2022-11-20T08:12:30;0.30;;;0.30;;
48791;SDS011;34587;48.816;9.420;2022-11-20T08:15:13;0.40;;;0.40;;
48791;SDS011;34587;48.816;9.420;2022-11-20T08:17:39;0.30;;;0.30;;
48791;SDS011;34587;48.816;9.420;2022-11-20T08:20:04;0.77;;;0.50;;
48791;SDS011;34587;48.816;9.420;2022-11-20T08:22:30;0.30;;;0.30;;
48791;SDS011;34587;48.816;9.420;2022-11-20T08:24:55;0.40;;;0.40;;
48791;SDS011;34587;48.816;9.420;2022-11-20T08:27:20;0.40;;;0.40;;
48791;SDS011;34587;48.816;9.420;2022-11-20T08:29:46;0.60;;;0.60;;
48791;SDS011;34587;48.816;9.420;2022-11-20T08:32:11;0.75;;;0.75;;
48791;SDS011;34587;48.816;9.420;2022-11-20T08:34:36;0.40;;;0.40;;
48791;SDS011;34587;48.816;9.420;2022-11-20T08:37:02;0.35;;;0.35;;
48791;SDS011;34587;48.816;9.420;2022-11-20T08:39:27;0.40;;;0.40;;
48791;SDS011;34587;48.816;9.420;2022-11-20T08:41:53;0.20;;;0.20;;
48791;SDS011;34587;48.816;9.420;2022-11-20T08:44:18;0.47;;;0.47;;
48791;SDS011;34587;48.816;9.420;2022-11-20T08:46:44;0.30;;;0.30;;
48791;SDS011;34587;48.816;9.420;2022-11-20T08:49:11;0.52;;;0.50;;
48791;SDS011;34587;48.816;9.420;2022-11-20T08:51:38;0.40;;;0.40;;
48791;SDS011;34587;48.816;9.420;2022-11-20T08:54:04;0.63;;;0.63;;
48791;SDS011;34587;48.816;9.420;2022-11-20T08:56:30;0.93;;;0.32;;
48791;SDS011;34587;48.816;9.420;2022-11-20T08:58:56;0.50;;;0.50;;
48791;SDS011;34587;48.816;9.420;2022-11-20T09:01:22;0.43;;;0.43;;
48791;SDS011;34587;48.816;9.420;2022-11-20T09:03:48;0.30;;;0.30;;
48791;SDS011;34587;48.816;9.420;2022-11-20T09:06:14;0.30;;;0.30;;
48791;SDS011;34587;48.816;9.420;2022-11-20T09:08:40;1.23;;;0.45;;
48791;SDS011;34587;48.816;9.420;2022-11-20T09:11:06;0.30;;;0.30;;
48791;SDS011;34587;48.816;9.420;2022-11-20T09:13:33;0.75;;;0.50;;
48791;SDS011;34587;48.816;9.420;2022-11-20T09:16:01;0.32;;;0.32;;
48791;SDS011;34587;48.816;9.420;2022-11-20T09:18:29;0.38;;;0.38;;
48791;SDS011;34587;48.816;9.420;2022-11-20T09:21:00;1.65;;;1.08;;
48791;SDS011;34587;48.816;9.420;2022-11-20T09:23:27;0.43;;;0.43;;
48791;SDS011;34587;48.816;9.420;2022-11-20T09:25:55;0.30;;;0.30;;
48791;SDS011;34587;48.816;9.420;2022-11-20T09:28:24;0.63;;;0.63;;
48791;SDS011;34587;48.816;9.420;2022-11-20T09:30:50;0.57;;;0.57;;
48791;SDS011;34587;48.816;9.420;2022-11-20T09:33:16;0.32;;;0.32;;
48791;SDS011;34587;48.816;9.420;2022-11-20T09:35:42;0.20;;;0.20;;
48791;SDS011;34587;48.816;9.420;2022-11-20T09:38:08;0.25;;;0.25;;
48791;SDS011;34587;48.816;9.420;2022-11-20T09:40:36;0.52;;;0.52;;
48791;SDS011;34587;48.816;9.420;2022-11-20T09:43:27;0.55;;;0.55;;
48791;SDS011;34587;48.816;9.420;2022-11-20T09:49:14;0.38;;;0.38;;
48791;SDS011;34587;48.816;9.420;2022-11-20T09:51:59;0.30;;;0.30;;
48791;SDS011;34587;48.816;9.420;2022-11-20T09:54:28;0.30;;;0.30;;
48791;SDS011;34587;48.816;9.420;2022-11-20T09:56:58;0.30;;;0.30;;
48791;SDS011;34587;48.816;9.420;2022-11-20T10:01:56;0.30;;;0.30;;
48791;SDS011;34587;48.816;9.420;2022-11-20T10:04:24;0.30;;;0.30;;
48791;SDS011;34587;48.816;9.420;2022-11-20T10:09:27;0.43;;;0.43;;
48791;SDS011;34587;48.816;9.420;2022-11-20T10:14:48;0.40;;;0.40;;
48791;SDS011;34587;48.816;9.420;2022-11-20T10:23:11;0.73;;;0.50;;
48791;SDS011;34587;48.816;9.420;2022-11-20T10:25:46;0.15;;;0.15;;
48791;SDS011;34587;48.816;9.420;2022-11-20T10:31:03;0.30;;;0.30;;
48791;SDS011;34587;48.816;9.420;2022-11-20T10:33:34;0.30;;;0.30;;
48791;SDS011;34587;48.816;9.420;2022-11-20T10:39:13;0.20;;;0.20;;
48791;SDS011;34587;48.816;9.420;2022-11-20T10:41:46;0.60;;;0.60;;
48791;SDS011;34587;48.816;9.420;2022-11-20T10:44:17;0.28;;;0.28;;
48791;SDS011;34587;48.816;9.420;2022-11-20T10:47:04;0.20;;;0.20;;
48791;SDS011;34587;48.816;9.420;2022-11-20T10:49:30;0.40;;;0.40;;
48791;SDS011;34587;48.816;9.420;2022-11-20T10:52:04;0.40;;;0.40;;
48791;SDS011;34587;48.816;9.420;2022-11-20T11:00:09;0.50;;;0.50;;
48791;SDS011;34587;48.816;9.420;2022-11-20T11:08:05;0.22;;;0.22;;
48791;SDS011;34587;48.816;9.420;2022-11-20T11:10:46;0.50;;;0.47;;
48791;SDS011;34587;48.816;9.420;2022-11-20T11:15:47;0.55;;;0.55;;
48791;SDS011;34587;48.816;9.420;2022-11-20T11:18:22;0.22;;;0.22;;
48791;SDS011;34587;48.816;9.420;2022-11-20T11:21:08;0.22;;;0.22;;
48791;SDS011;34587;48.816;9.420;2022-11-20T11:23:34;0.25;;;0.25;;
48791;SDS011;34587;48.816;9.420;2022-11-20T11:26:01;0.30;;;0.30;;
48791;SDS011;34587;48.816;9.420;2022-11-20T11:28:29;0.30;;;0.30;;
48791;SDS011;34587;48.816;9.420;2022-11-20T11:30:55;0.30;;;0.30;;
48791;SDS011;34587;48.816;9.420;2022-11-20T11:33:27;1.25;;;0.75;;
48791;SDS011;34587;48.816;9.420;2022-11-20T11:35:55;0.50;;;0.50;;
48791;SDS011;34587;48.816;9.420;2022-11-20T11:38:36;0.95;;;0.55;;
48791;SDS011;34587;48.816;9.420;2022-11-20T11:41:04;0.77;;;0.45;;
48791;SDS011;34587;48.816;9.420;2022-11-20T11:43:32;0.55;;;0.38;;
48791;SDS011;34587;48.816;9.420;2022-11-20T11:48:57;1.35;;;0.73;;
48791;SDS011;34587;48.816;9.420;2022-11-20T11:51:32;52.22;;;7.38;;
48791;SDS011;34587;48.816;9.420;2022-11-20T11:53:59;93.30;;;34.00;;
48791;SDS011;34587;48.816;9.420;2022-11-20T11:56:28;39.13;;;13.77;;
48791;SDS011;34587;48.816;9.420;2022-11-20T11:58:56;26.17;;;8.88;;
48791;SDS011;34587;48.816;9.420;2022-11-20T12:04:09;11.05;;;4.70;;
48791;SDS011;34587;48.816;9.420;2022-11-20T12:09:15;7.32;;;4.15;;
48791;SDS011;34587;48.816;9.420;2022-11-20T12:11:45;3.22;;;2.72;;
48791;SDS011;34587;48.816;9.420;2022-11-20T12:14:26;4.88;;;2.17;;
48791;SDS011;34587;48.816;9.420;2022-11-20T12:16:59;3.17;;;2.00;;
48791;SDS011;34587;48.816;9.420;2022-11-20T12:19:26;1.08;;;1.00;;
48791;SDS011;34587;48.816;9.420;2022-11-20T12:21:56;0.68;;;0.65;;
48791;SDS011;34587;48.816;9.420;2022-11-20T12:30:14;1.77;;;1.67;;
48791;SDS011;34587;48.816;9.420;2022-11-20T12:32:48;1.98;;;1.33;;
48791;SDS011;34587;48.816;9.420;2022-11-20T12:43:37;0.60;;;0.60;;
48791;SDS011;34587;48.816;9.420;2022-11-20T12:46:32;0.50;;;0.50;;
48791;SDS011;34587;48.816;9.420;2022-11-20T12:54:37;0.50;;;0.50;;
48791;SDS011;34587;48.816;9.420;2022-11-20T13:00:10;0.68;;;0.68;;
48791;SDS011;34587;48.816;9.420;2022-11-20T13:08:29;1.13;;;0.65;;
48791;SDS011;34587;48.816;9.420;2022-11-20T13:13:42;0.30;;;0.30;;
48791;SDS011;34587;48.816;9.420;2022-11-20T13:16:23;1.25;;;1.15;;
48791;SDS011;34587;48.816;9.420;2022-11-20T13:18:49;0.30;;;0.30;;
48791;SDS011;34587;48.816;9.420;2022-11-20T13:21:16;1.02;;;0.63;;
48791;SDS011;34587;48.816;9.420;2022-11-20T13:27:04;0.32;;;0.32;;
48791;SDS011;34587;48.816;9.420;2022-11-20T13:29:36;0.35;;;0.35;;
48791;SDS011;34587;48.816;9.420;2022-11-20T13:32:14;0.43;;;0.43;;
48791;SDS011;34587;48.816;9.420;2022-11-20T13:34:54;1.85;;;0.98;;
48791;SDS011;34587;48.816;9.420;2022-11-20T13:42:36;0.30;;;0.30;;
48791;SDS011;34587;48.816;9.420;2022-11-20T13:45:09;0.20;;;0.20;;
48791;SDS011;34587;48.816;9.420;2022-11-20T13:47:49;1.00;;;0.63;;
48791;SDS011;34587;48.816;9.420;2022-11-20T13:50:16;1.25;;;0.60;;
48791;SDS011;34587;48.816;9.420;2022-11-20T13:52:49;5.78;;;1.08;;
48791;SDS011;34587;48.816;9.420;2022-11-20T14:01:05;1.20;;;0.60;;
48791;SDS011;34587;48.816;9.420;2022-11-20T14:03:34;0.20;;;0.20;;
48791;SDS011;34587;48.816;9.420;2022-11-20T14:06:05;0.63;;;0.40;;
48791;SDS011;34587;48.816;9.420;2022-11-20T14:08:39;0.30;;;0.30;;
48791;SDS011;34587;48.816;9.420;2022-11-20T14:11:14;0.20;;;0.20;;
48791;SDS011;34587;48.816;9.420;2022-11-20T14:16:37;0.55;;;0.52;;
48791;SDS011;34587;48.816;9.420;2022-11-20T14:21:44;0.60;;;0.50;;
48791;SDS011;34587;48.816;9.420;2022-11-20T14:24:17;0.30;;;0.30;;
48791;SDS011;34587;48.816;9.420;2022-11-20T14:26:47;1.45;;;0.45;;
48791;SDS011;34587;48.816;9.420;2022-11-20T14:29:14;0.50;;;0.50;;
48791;SDS011;34587;48.816;9.420;2022-11-20T14:31:42;0.50;;;0.50;;
48791;SDS011;34587;48.816;9.420;2022-11-20T14:34:51;0.10;;;0.10;;
48791;SDS011;34587;48.816;9.420;2022-11-20T14:37:01;0.40;;;0.40;;
48791;SDS011;34587;48.816;9.420;2022-11-20T14:39:37;0.20;;;0.20;;
48791;SDS011;34587;48.816;9.420;2022-11-20T14:42:17;0.43;;;0.40;;
48791;SDS011;34587;48.816;9.420;2022-11-20T14:44:44;1.23;;;0.50;;
48791;SDS011;34587;48.816;9.420;2022-11-20T14:47:13;1.48;;;0.85;;
48791;SDS011;34587;48.816;9.420;2022-11-20T14:49:43;0.30;;;0.30;;
48791;SDS011;34587;48.816;9.420;2022-11-20T14:52:23;0.35;;;0.35;;
48791;SDS011;34587;48.816;9.420;2022-11-20T14:54:50;0.40;;;0.40;;
48791;SDS011;34587;48.816;9.420;2022-11-20T15:00:37;0.45;;;0.45;;
48791;SDS011;34587;48.816;9.420;2022-11-20T15:02:41;0.35;;;0.35;;
48791;SDS011;34587;48.816;9.420;2022-11-20T15:05:07;0.50;;;0.50;;
48791;SDS011;34587;48.816;9.420;2022-11-20T15:07:34;1.65;;;0.73;;
48791;SDS011;34587;48.816;9.420;2022-11-20T15:12:49;1.90;;;1.05;;
48791;SDS011;34587;48.816;9.420;2022-11-20T15:15:17;1.85;;;0.60;;
48791;SDS011;34587;48.816;9.420;2022-11-20T15:18:04;3.50;;;1.00;;
48791;SDS011;34587;48.816;9.420;2022-11-20T15:20:31;1.17;;;0.73;;
48791;SDS011;34587;48.816;9.420;2022-11-20T15:22:58;1.08;;;0.93;;
48791;SDS011;34587;48.816;9.420;2022-11-20T15:25:23;1.75;;;1.30;;
48791;SDS011;34587;48.816;9.420;2022-11-20T15:27:51;0.98;;;0.95;;
48791;SDS011;34587;48.816;9.420;2022-11-20T15:30:19;1.77;;;0.63;;
48791;SDS011;34587;48.816;9.420;2022-11-20T15:32:45;2.35;;;1.25;;
48791;SDS011;34587;48.816;9.420;2022-11-20T15:35:12;0.90;;;0.90;;
48791;SDS011;34587;48.816;9.420;2022-11-20T15:37:38;0.77;;;0.73;;
48791;SDS011;34587;48.816;9.420;2022-11-20T15:40:05;1.10;;;0.98;;
48791;SDS011;34587;48.816;9.420;2022-11-20T15:42:32;1.08;;;0.90;;
48791;SDS011;34587;48.816;9.420;2022-11-20T15:44:58;1.35;;;0.65;;
48791;SDS011;34587;48.816;9.420;2022-11-20T15:47:30;0.68;;;0.68;;
48791;SDS011;34587;48.816;9.420;2022-11-20T15:49:58;0.30;;;0.30;;
48791;SDS011;34587;48.816;9.420;2022-11-20T15:52:24;0.50;;;0.47;;
48791;SDS011;34587;48.816;9.420;2022-11-20T15:54:50;2.15;;;0.82;;
48791;SDS011;34587;48.816;9.420;2022-11-20T15:57:15;0.32;;;0.32;;
48791;SDS011;34587;48.816;9.420;2022-11-20T15:59:40;0.60;;;0.60;;
48791;SDS011;34587;48.816;9.420;2022-11-20T16:02:13;6.50;;;0.40;;
48791;SDS011;34587;48.816;9.420;2022-11-20T16:04:39;0.82;;;0.80;;
48791;SDS011;34587;48.816;9.420;2022-11-20T16:07:05;0.50;;;0.50;;
48791;SDS011;34587;48.816;9.420;2022-11-20T16:09:30;1.13;;;1.02;;
48791;SDS011;34587;48.816;9.420;2022-11-20T16:11:56;1.55;;;0.45;;
48791;SDS011;34587;48.816;9.420;2022-11-20T16:14:24;0.20;;;0.20;;
48791;SDS011;34587;48.816;9.420;2022-11-20T16:17:09;0.50;;;0.50;;
48791;SDS011;34587;48.816;9.420;2022-11-20T16:19:35;0.30;;;0.30;;
48791;SDS011;34587;48.816;9.420;2022-11-20T16:22:01;0.60;;;0.55;;
48791;SDS011;34587;48.816;9.420;2022-11-20T16:24:26;0.43;;;0.43;;
48791;SDS011;34587;48.816;9.420;2022-11-20T16:26:55;1.13;;;0.68;;
48791;SDS011;34587;48.816;9.420;2022-11-20T16:29:20;0.43;;;0.40;;
48791;SDS011;34587;48.816;9.420;2022-11-20T16:31:46;0.50;;;0.50;;
48791;SDS011;34587;48.816;9.420;2022-11-20T16:34:11;0.60;;;0.60;;
48791;SDS011;34587;48.816;9.420;2022-11-20T16:36:38;0.70;;;0.70;;
48791;SDS011;34587;48.816;9.420;2022-11-20T16:39:08;0.60;;;0.60;;
48791;SDS011;34587;48.816;9.420;2022-11-20T16:41:33;0.40;;;0.40;;
48791;SDS011;34587;48.816;9.420;2022-11-20T16:44:02;0.73;;;0.63;;
48791;SDS011;34587;48.816;9.420;2022-11-20T16:46:32;0.65;;;0.65;;
48791;SDS011;34587;48.816;9.420;2022-11-20T16:49:01;0.82;;;0.82;;
48791;SDS011;34587;48.816;9.420;2022-11-20T16:51:29;0.70;;;0.60;;
48791;SDS011;34587;48.816;9.420;2022-11-20T16:53:55;0.70;;;0.70;;
48791;SDS011;34587;48.816;9.420;2022-11-20T16:56:22;1.08;;;0.63;;
48791;SDS011;34587;48.816;9.420;2022-11-20T16:58:49;1.42;;;0.82;;
48791;SDS011;34587;48.816;9.420;2022-11-20T17:01:17;1.85;;;0.90;;
48791;SDS011;34587;48.816;9.420;2022-11-20T17:03:45;1.75;;;1.65;;
48791;SDS011;34587;48.816;9.420;2022-11-20T17:06:22;0.60;;;0.60;;
48791;SDS011;34587;48.816;9.420;2022-11-20T17:08:49;1.20;;;1.00;;
48791;SDS011;34587;48.816;9.420;2022-11-20T17:11:16;0.88;;;0.85;;
48791;SDS011;34587;48.816;9.420;2022-11-20T17:13:43;0.60;;;0.60;;
48791;SDS011;34587;48.816;9.420;2022-11-20T17:16:10;2.60;;;0.90;;
48791;SDS011;34587;48.816;9.420;2022-11-20T17:18:37;0.70;;;0.70;;
48791;SDS011;34587;48.816;9.420;2022-11-20T17:21:03;1.25;;;1.15;;
48791;SDS011;34587;48.816;9.420;2022-11-20T17:23:30;0.60;;;0.60;;
48791;SDS011;34587;48.816;9.420;2022-11-20T17:26:00;2.38;;;0.70;;
48791;SDS011;34587;48.816;9.420;2022-11-20T17:28:26;0.60;;;0.60;;
48791;SDS011;34587;48.816;9.420;2022-11-20T17:30:51;0.70;;;0.70;;
48791;SDS011;34587;48.816;9.420;2022-11-20T17:33:17;4.95;;;1.20;;
48791;SDS011;34587;48.816;9.420;2022-11-20T17:35:42;0.70;;;0.70;;
48791;SDS011;34587;48.816;9.420;2022-11-20T17:38:07;1.20;;;0.80;;
48791;SDS011;34587;48.816;9.420;2022-11-20T17:40:32;1.75;;;1.58;;
48791;SDS011;34587;48.816;9.420;2022-11-20T17:42:58;0.60;;;0.60;;
48791;SDS011;34587;48.816;9.420;2022-11-20T17:45:23;0.70;;;0.70;;
48791;SDS011;34587;48.816;9.420;2022-11-20T17:47:48;0.73;;;0.60;;
48791;SDS011;34587;48.816;9.420;2022-11-20T17:50:14;0.60;;;0.60;;
48791;SDS011;34587;48.816;9.420;2022-11-20T17:52:39;0.77;;;0.77;;
48791;SDS011;34587;48.816;9.420;2022-11-20T17:55:05;0.88;;;0.85;;
48791;SDS011;34587;48.816;9.420;2022-11-20T17:57:30;0.60;;;0.60;;
48791;SDS011;34587;48.816;9.420;2022-11-20T18:00:14;1.13;;;0.60;;
48791;SDS011;34587;48.816;9.420;2022-11-20T18:02:41;0.88;;;0.60;;
48791;SDS011;34587;48.816;9.420;2022-11-20T18:05:06;0.80;;;0.75;;
48791;SDS011;34587;48.816;9.420;2022-11-20T18:07:32;0.65;;;0.65;;
48791;SDS011;34587;48.816;9.420;2022-11-20T18:09:57;0.47;;;0.47;;
48791;SDS011;34587;48.816;9.420;2022-11-20T18:12:22;0.38;;;0.38;;
48791;SDS011;34587;48.816;9.420;2022-11-20T18:14:48;0.60;;;0.60;;
48791;SDS011;34587;48.816;9.420;2022-11-20T18:17:13;0.70;;;0.50;;
48791;SDS011;34587;48.816;9.420;2022-11-20T18:19:41;0.95;;;0.77;;
48791;SDS011;34587;48.816;9.420;2022-11-20T18:22:08;0.50;;;0.50;;
48791;SDS011;34587;48.816;9.420;2022-11-20T18:24:34;0.47;;;0.47;;
48791;SDS011;34587;48.816;9.420;2022-11-20T18:27:00;0.47;;;0.40;;
48791;SDS011;34587;48.816;9.420;2022-11-20T18:29:26;1.35;;;0.93;;
48791;SDS011;34587;48.816;9.420;2022-11-20T18:31:53;0.50;;;0.50;;
48791;SDS011;34587;48.816;9.420;2022-11-20T18:34:18;0.60;;;0.60;;
48791;SDS011;34587;48.816;9.420;2022-11-20T18:36:44;0.90;;;0.60;;
48791;SDS011;34587;48.816;9.420;2022-11-20T18:39:10;0.40;;;0.40;;
48791;SDS011;34587;48.816;9.420;2022-11-20T18:41:37;0.43;;;0.43;;
48791;SDS011;34587;48.816;9.420;2022-11-20T18:44:23;0.50;;;0.50;;
48791;SDS011;34587;48.816;9.420;2022-11-20T18:47:10;0.40;;;0.40;;
48791;SDS011;34587;48.816;9.420;2022-11-20T18:49:37;0.77;;;0.47;;
48791;SDS011;34587;48.816;9.420;2022-11-20T18:52:02;0.68;;;0.68;;
48791;SDS011;34587;48.816;9.420;2022-11-20T18:54:28;0.40;;;0.40;;
48791;SDS011;34587;48.816;9.420;2022-11-20T18:56:53;0.50;;;0.50;;
48791;SDS011;34587;48.816;9.420;2022-11-20T18:59:19;0.50;;;0.40;;
48791;SDS011;34587;48.816;9.420;2022-11-20T19:01:45;0.57;;;0.57;;
48791;SDS011;34587;48.816;9.420;2022-11-20T19:04:12;1.20;;;1.10;;
48791;SDS011;34587;48.816;9.420;2022-11-20T19:06:39;1.55;;;1.08;;
48791;SDS011;34587;48.816;9.420;2022-11-20T19:09:07;0.45;;;0.45;;
48791;SDS011;34587;48.816;9.420;2022-11-20T19:11:34;1.27;;;0.75;;
48791;SDS011;34587;48.816;9.420;2022-11-20T19:13:59;1.30;;;0.47;;
48791;SDS011;34587;48.816;9.420;2022-11-20T19:16:25;0.75;;;0.75;;
48791;SDS011;34587;48.816;9.420;2022-11-20T19:18:50;1.25;;;0.68;;
48791;SDS011;34587;48.816;9.420;2022-11-20T19:21:17;1.05;;;1.00;;
48791;SDS011;34587;48.816;9.420;2022-11-20T19:23:47;0.73;;;0.73;;
48791;SDS011;34587;48.816;9.420;2022-11-20T19:26:14;0.60;;;0.60;;
48791;SDS011;34587;48.816;9.420;2022-11-20T19:28:40;0.75;;;0.57;;
48791;SDS011;34587;48.816;9.420;2022-11-20T19:31:06;0.70;;;0.70;;
48791;SDS011;34587;48.816;9.420;2022-11-20T19:33:33;0.88;;;0.85;;
48791;SDS011;34587;48.816;9.420;2022-11-20T19:36:08;0.85;;;0.45;;
48791;SDS011;34587;48.816;9.420;2022-11-20T19:38:35;0.85;;;0.85;;
48791;SDS011;34587;48.816;9.420;2022-11-20T19:41:01;1.60;;;0.55;;
48791;SDS011;34587;48.816;9.420;2022-11-20T19:43:27;0.45;;;0.45;;
48791;SDS011;34587;48.816;9.420;2022-11-20T19:45:52;1.40;;;0.45;;
48791;SDS011;34587;48.816;9.420;2022-11-20T19:48:17;0.30;;;0.30;;
48791;SDS011;34587;48.816;9.420;2022-11-20T19:50:43;0.30;;;0.30;;
48791;SDS011;34587;48.816;9.420;2022-11-20T19:53:08;0.77;;;0.77;;
48791;SDS011;34587;48.816;9.420;2022-11-20T19:55:35;0.30;;;0.30;;
48791;SDS011;34587;48.816;9.420;2022-11-20T19:58:00;0.30;;;0.30;;
48791;SDS011;34587;48.816;9.420;2022-11-20T20:00:27;0.30;;;0.30;;
48791;SDS011;34587;48.816;9.420;2022-11-20T20:02:54;0.38;;;0.38;;
48791;SDS011;34587;48.816;9.420;2022-11-20T20:05:19;0.30;;;0.30;;
48791;SDS011;34587;48.816;9.420;2022-11-20T20:07:44;0.40;;;0.40;;
48791;SDS011;34587;48.816;9.420;2022-11-20T20:10:10;0.30;;;0.30;;
48791;SDS011;34587;48.816;9.420;2022-11-20T20:12:35;0.50;;;0.50;;
48791;SDS011;34587;48.816;9.420;2022-11-20T20:15:00;0.50;;;0.50;;
48791;SDS011;34587;48.816;9.420;2022-11-20T20:17:25;0.93;;;0.93;;
48791;SDS011;34587;48.816;9.420;2022-11-20T20:19:51;0.43;;;0.43;;
48791;SDS011;34587;48.816;9.420;2022-11-20T20:22:16;0.40;;;0.40;;
48791;SDS011;34587;48.816;9.420;2022-11-20T20:24:41;0.30;;;0.30;;
48791;SDS011;34587;48.816;9.420;2022-11-20T20:27:07;0.40;;;0.40;;
48791;SDS011;34587;48.816;9.420;2022-11-20T20:29:32;0.47;;;0.47;;
48791;SDS011;34587;48.816;9.420;2022-11-20T20:31:57;0.35;;;0.30;;
48791;SDS011;34587;48.816;9.420;2022-11-20T20:34:23;0.20;;;0.20;;
48791;SDS011;34587;48.816;9.420;2022-11-20T20:36:53;0.35;;;0.35;;
48791;SDS011;34587;48.816;9.420;2022-11-20T20:39:19;0.30;;;0.30;;
48791;SDS011;34587;48.816;9.420;2022-11-20T20:41:44;0.50;;;0.50;;
48791;SDS011;34587;48.816;9.420;2022-11-20T20:44:09;0.35;;;0.35;;
48791;SDS011;34587;48.816;9.420;2022-11-20T20:46:53;0.38;;;0.38;;
48791;SDS011;34587;48.816;9.420;2022-11-20T20:49:18;0.65;;;0.65;;
48791;SDS011;34587;48.816;9.420;2022-11-20T20:51:44;0.28;;;0.28;;
48791;SDS011;34587;48.816;9.420;2022-11-20T20:54:09;0.28;;;0.28;;
48791;SDS011;34587;48.816;9.420;2022-11-20T20:56:34;0.30;;;0.30;;
48791;SDS011;34587;48.816;9.420;2022-11-20T20:59:00;0.30;;;0.30;;
48791;SDS011;34587;48.816;9.420;2022-11-20T21:01:25;0.30;;;0.30;;
48791;SDS011;34587;48.816;9.420;2022-11-20T21:03:54;0.20;;;0.20;;
48791;SDS011;34587;48.816;9.420;2022-11-20T21:06:20;0.47;;;0.47;;
48791;SDS011;34587;48.816;9.420;2022-11-20T21:08:45;0.40;;;0.40;;
48791;SDS011;34587;48.816;9.420;2022-11-20T21:11:14;0.57;;;0.50;;
48791;SDS011;34587;48.816;9.420;2022-11-20T21:13:42;0.20;;;0.20;;
48791;SDS011;34587;48.816;9.420;2022-11-20T21:16:09;0.20;;;0.20;;
48791;SDS011;34587;48.816;9.420;2022-11-20T21:18:35;0.30;;;0.30;;
48791;SDS011;34587;48.816;9.420;2022-11-20T21:21:07;0.20;;;0.20;;
48791;SDS011;34587;48.816;9.420;2022-11-20T21:23:54;1.25;;;0.45;;